Armagh, PA

2:57 PM EDT on April 21, 2015 (GMT -0400)
Seward | Change Station
CLOSE
Current Station
Personal Weather Station
Location: Seward, PA
Elevation: 1138 ft
Nearby Weather Stations

Elev 1138 ft 40.41 °N, 79.02 °W | Updated 9 minutes ago

Overcast
Overcast
57.1 °F
Feels Like 57.1 °F
N
6.0
Wind Variable Wind from NE
Gusts 20.0 mph

Today
High -- | Low -- °F
--% Chance of Precip.
Yesterday
High -- | Low -- °F
Precip. -- in
6:29 AM 8:01 PM
Waxing Crescent, 12% visible
Pressure 29.71 in
Visibility 10.0 miles
Clouds Mostly Cloudy 7000 ft
Dew Point 29 °F
Humidity 34%
Rainfall 0.00 in
Snow Depth Not available.
UV 5 out of 12
Pollen 10.00 out of 12
Ozone Good
PM2.5 Good
Flu Activity Sporadic
METAR KJST 211754Z AUTO 25015G25KT 220V280 10SM BKN070 11/M04 A2970 RMK AO2 PK WND 24030/1727 SLP060 T01061044 10106 20050 58011

More Conditions Fewer Conditions

Pressure 29.71 in
Visibility 10.0 miles
Clouds Mostly Cloudy 7000 ft
Dew Point 29 °F
Humidity 34%
Rainfall 0.00 in
Snow Depth Not available.
UV 5 out of 12
Pollen 10.00 out of 12
Ozone Good
PM2.5 Good
Flu Activity Sporadic
METAR KJST 211754Z AUTO 25015G25KT 220V280 10SM BKN070 11/M04 A2970 RMK AO2 PK WND 24030/1727 SLP060 T01061044 10106 20050 58011

More Conditions Fewer Conditions

10-Day Weather Forecast

Almanac

Astronomy

Apr. 21, 2015 Rise Set
Actual Time 6:29 AM EDT 8:01 PM EDT
Civil Twilight 6:00 AM EDT 8:29 PM EDT
Nautical Twilight 5:25 AM EDT 9:04 PM EDT
Astronomical Twilight 4:49 AM EDT 9:41 PM EDT
Moon 8:44 AM EDT 11:21 PM EDT
Length of Visible Light 14h 29m
Length of Day
13h 31m
Tomorrow will be 2m 28s longer.
Waxing Crescent, 12% of the Moon is Illuminated
Today
Waxing Crescent
Apr 25
First Quarter
May 3
Full
May 11
Last Quarter
May 18
New

Today's Extremes

State Highs State Lows

Community

WunderPhotos

Upload Photos

1,815,487 photos uploaded!

Nearby

Air Quality

  Air Quality AQ Index Pollutant
Yesterday Moderate
OZONE
Yesterday Good
PM2.5
Current Good
PM2.5
Current Good
OZONE
Tuesday Good
PM2.5
Wednesday Good
PM2.5

Snow Depth

Station Depth Elevation
No new snow has been reported.

Earthquake Activity

City Distance Mag. Time & Date
No recent earthquake activity has been reported nearby.
Minimum magnitude displayed is 2.5.

Coastal Water Temperatures

Place Temperature
No Stations Reporting

Nearby Weather Stations